createdAt,value
2023-03-08T10:01:47.317Z,84.07
2023-03-08T10:04:20.342Z,84.34
2023-03-08T10:06:53.462Z,83.53
2023-03-08T10:09:25.866Z,83.46
2023-03-08T10:11:55.642Z,84.55
2023-03-08T10:14:25.073Z,84.05
2023-03-08T10:16:55.297Z,83.85
2023-03-08T10:19:23.955Z,83.74
2023-03-08T10:21:51.212Z,83.68
2023-03-08T10:24:21.304Z,83.55
2023-03-08T10:26:48.510Z,83.66
2023-03-08T10:29:15.737Z,82.77
2023-03-08T10:31:43.234Z,82.90
2023-03-08T10:34:14.167Z,83.48
2023-03-08T10:36:48.460Z,82.38
2023-03-08T10:39:15.651Z,81.96
2023-03-08T10:41:43.524Z,82.37
2023-03-08T10:44:13.943Z,81.94
2023-03-08T10:46:46.600Z,81.51
2023-03-08T10:49:17.725Z,82.00
2023-03-08T10:51:55.324Z,81.54
2023-03-08T10:54:22.444Z,81.38
2023-03-08T10:56:54.863Z,81.47
2023-03-08T10:59:22.826Z,81.06
2023-03-08T11:01:50.705Z,80.08
2023-03-08T11:04:20.015Z,79.66
2023-03-08T11:06:47.373Z,79.71
2023-03-08T11:09:22.258Z,78.56
2023-03-08T11:11:49.504Z,77.88
2023-03-08T18:49:48.907Z,75.27
2023-03-08T18:52:15.998Z,76.14
2023-03-08T18:54:43.102Z,75.36
2023-03-08T18:57:10.297Z,75.09
2023-03-08T18:59:37.372Z,75.38
2023-03-08T19:02:04.604Z,74.97
2023-03-08T19:04:31.884Z,74.06
2023-03-08T19:07:00.473Z,74.71
2023-03-08T19:09:27.633Z,73.88
2023-03-08T19:11:54.820Z,73.89
2023-03-08T19:14:21.933Z,73.96
2023-03-08T19:16:49.223Z,73.50
2023-03-08T19:19:16.455Z,73.53
2023-03-08T19:21:44.627Z,73.15
2023-03-08T19:24:13.257Z,73.15
2023-03-08T19:26:40.408Z,72.51
2023-03-08T19:29:12.127Z,73.83
2023-03-08T19:31:41.003Z,73.43
2023-03-08T19:34:08.402Z,73.52
2023-03-08T19:36:35.605Z,74.32
2023-03-08T19:39:02.868Z,75.55
2023-03-08T19:41:31.479Z,76.02
2023-03-08T19:43:58.660Z,76.95
2023-03-08T19:46:25.857Z,77.26
2023-03-08T19:48:52.984Z,78.53
2023-03-08T19:51:20.176Z,79.44
2023-03-08T19:53:47.406Z,79.74
2023-03-08T19:56:15.147Z,80.53
2023-03-08T19:58:43.848Z,82.14
2023-03-08T20:01:11.960Z,84.70
2023-03-08T20:03:39.174Z,85.79
2023-03-08T20:06:06.725Z,85.84
2023-03-08T20:08:33.804Z,84.71
2023-03-08T20:11:01.021Z,84.86
2023-03-08T20:13:28.414Z,84.10
2023-03-08T20:15:57.063Z,84.90
2023-03-08T20:18:24.476Z,86.18
2023-03-08T20:20:51.637Z,84.92
2023-03-08T20:23:18.694Z,83.64
2023-03-08T20:25:45.862Z,83.56
2023-03-08T20:28:13.085Z,83.07
2023-03-08T20:30:40.241Z,82.86
2023-03-08T20:33:09.481Z,82.83
2023-03-08T20:35:36.672Z,83.33
2023-03-08T20:38:03.934Z,84.02
2023-03-08T20:40:31.145Z,84.04
2023-03-08T20:42:58.280Z,83.87
2023-03-08T20:45:25.460Z,84.13
2023-03-08T20:47:52.633Z,84.18
2023-03-08T20:50:21.219Z,83.94
2023-03-08T20:52:48.570Z,84.80
2023-03-08T20:55:15.829Z,84.45
2023-03-08T20:57:43.073Z,84.62
2023-03-08T21:00:11.889Z,85.28
2023-03-08T21:02:39.119Z,84.80
2023-03-08T21:05:07.173Z,85.37
2023-03-08T21:07:35.835Z,86.11
2023-03-08T21:10:03.211Z,85.73
2023-03-08T21:12:30.410Z,86.30
2023-03-08T21:14:57.743Z,86.24
2023-03-08T21:17:25.066Z,85.73
2023-03-08T21:19:52.719Z,85.49
2023-03-08T21:22:19.965Z,85.01
